Aeroporto :
LOGIN :

Iscrizione | Disclaimer

   EN    FR    IT 

 










Sommario :    VFR   VFR Marginale   IFR   IFR Intensivo   IFR Molto Intensivo
Visibilità : 
Base nubi : 
>= 8 km
>= 3000ft
5 / 8 km
1000 / 3000 ft
1500m / 5 km
500 / 1000 ft
800 / 1500m
200 / 500 ft
< 800m
< 200 ft
Simboli :   Temporali  Nebbia  Neve Forte  Precipitazioni Forti  Vento > 20 kt
SIGMETs :   Varie  Temporali  Ghiacco  Turbolenza  Onda orograficha  Ceneri Vulcaniche






- Altitudine del aeroporto : 11 ft
- Codice IATA : SXL


EISG - Sligo

ULTIMO METAR :
  • 060930Z 25014KT 3800 -RA FEW013 SCT019 BKN027 09/09 Q0997

METARs OBSOLETI :
  • 060900Z 25015KT 7000 FEW012 SCT024 BKN044 09/09 Q0997
  • 060830Z 25016KT 7000 FEW023 SCT033 BKN049 09/09 Q0996
  • 060800Z 24014KT 7000 FEW040 BKN060 09/09 Q0996

TAF TAF EISG
Valido dal 06 a 09 ore il 06 a 18 ore UTC


060800Z 0609/0618 25015G25KT 9999 SCT010 BKN020
TEMPO 0609/0618 -SHRA BKN014
BECMG 0610/0612 29018G30KT
TEMPO 0610/0612 5000 SHRA BKN010 SCT018CB



MetMap, La meteo Aeronautica in un colpo d'occhio ! - Copyright ORBIFLY Dicembre 2007 - Disclaimer

ORBIFLY MET'MAP TEAM :

Programmazione e sviluppo : Alexandra Zaïnal
Concezione : Baudouin d'Aumeries
Aiuto per la programmazione : Marc-Olivier Méhu
Supporto tecnico e logistico : Manuel Goepfert
Aiuto per la traduzione : Arnaldo La Scala

Contatto : metmap@orbifly.com




FONTI E CREDITI :

   NOAA